createdAt,value
2023-03-21T05:45:46.678Z,9.33
2023-03-21T05:46:46.571Z,9.36
2023-03-21T05:47:46.578Z,9.35
2023-03-21T05:48:46.556Z,9.36
2023-03-21T05:49:46.531Z,9.36
2023-03-21T05:50:46.514Z,9.36
2023-03-21T05:51:46.521Z,9.38
2023-03-21T05:52:46.519Z,9.39
2023-03-21T05:53:46.519Z,9.38
2023-03-21T05:54:46.488Z,9.38
2023-03-21T05:55:46.478Z,9.40
2023-03-21T05:56:46.457Z,9.47
2023-03-21T05:57:46.452Z,9.46
2023-03-21T05:58:46.519Z,9.51
2023-03-21T05:59:46.474Z,9.51
2023-03-21T06:00:46.431Z,9.50
2023-03-21T06:01:46.423Z,9.50
2023-03-21T06:02:46.439Z,9.53
2023-03-21T06:03:46.458Z,9.54
2023-03-21T06:04:46.394Z,9.54
2023-03-21T06:05:46.360Z,9.56
2023-03-21T06:06:46.350Z,9.54
2023-03-21T06:07:46.367Z,9.57
2023-03-21T06:08:46.358Z,9.57
2023-03-21T06:09:46.329Z,9.57
2023-03-21T06:10:46.344Z,9.56
2023-03-21T06:11:46.322Z,9.56
2023-03-21T06:12:46.308Z,9.54
2023-03-21T06:13:46.305Z,9.57
2023-03-21T06:14:46.318Z,9.56
2023-03-21T06:15:46.271Z,9.54
2023-03-21T06:16:46.248Z,9.56
2023-03-21T06:17:46.236Z,9.54
2023-03-21T06:18:46.259Z,9.56
2023-03-21T06:19:46.231Z,9.60
2023-03-21T06:20:46.212Z,9.61
2023-03-21T06:21:46.207Z,9.65
2023-03-21T06:22:46.185Z,9.66
2023-03-21T06:23:46.238Z,9.72
2023-03-21T06:24:46.177Z,9.71
2023-03-21T06:25:46.163Z,9.75
2023-03-21T06:26:46.149Z,9.81
2023-03-21T06:27:46.160Z,9.86
2023-03-21T06:28:46.154Z,9.86
2023-03-21T06:29:46.125Z,9.90
2023-03-21T06:30:46.123Z,9.97
2023-03-21T06:31:46.285Z,10.02
2023-03-21T06:32:46.141Z,10.05
2023-03-21T06:33:46.079Z,10.12
2023-03-21T06:34:46.082Z,10.12
2023-03-21T06:35:46.059Z,10.15
2023-03-21T06:36:46.050Z,10.22
2023-03-21T06:37:46.077Z,10.26
2023-03-21T06:38:46.067Z,10.32
2023-03-21T06:39:46.024Z,10.26
2023-03-21T06:40:46.021Z,10.27
2023-03-21T06:41:45.993Z,10.29
2023-03-21T06:42:45.988Z,10.30
2023-03-21T06:43:46.010Z,10.33
2023-03-21T06:44:46.003Z,10.34
2023-03-21T06:45:45.958Z,10.34
2023-03-21T06:46:46.012Z,10.30
2023-03-21T06:47:46.005Z,10.29
2023-03-21T06:48:45.920Z,10.23
2023-03-21T06:49:45.953Z,10.26
2023-03-21T06:50:45.901Z,10.22
2023-03-21T06:51:45.884Z,10.23
2023-03-21T06:52:45.912Z,10.25
2023-03-21T06:53:45.915Z,10.26
2023-03-21T06:54:45.880Z,10.18
2023-03-21T06:55:45.836Z,10.22
2023-03-21T06:56:45.843Z,10.18
2023-03-21T06:57:45.817Z,10.25
2023-03-21T06:58:45.842Z,10.26
2023-03-21T06:59:45.819Z,10.23
2023-03-21T07:00:45.836Z,10.18
2023-03-21T07:01:45.814Z,10.17
2023-03-21T07:02:45.813Z,10.14
2023-03-21T07:03:45.846Z,10.14
2023-03-21T07:04:45.781Z,10.15
2023-03-21T07:05:45.730Z,10.09
2023-03-21T07:06:45.776Z,10.11
2023-03-21T07:07:45.719Z,10.08
2023-03-21T07:08:45.777Z,10.07
2023-03-21T07:09:45.709Z,10.04
2023-03-21T07:10:45.688Z,10.02
2023-03-21T07:11:45.704Z,10.04
2023-03-21T07:12:45.692Z,10.08
2023-03-21T07:13:45.666Z,10.07
2023-03-21T07:14:45.668Z,10.11
2023-03-21T07:15:45.660Z,10.12
2023-03-21T07:16:45.706Z,10.11
2023-03-21T07:17:45.604Z,10.15
2023-03-21T07:18:45.609Z,10.15
2023-03-21T07:19:45.597Z,10.12
2023-03-21T07:20:45.589Z,10.11
2023-03-21T07:21:45.715Z,10.04
2023-03-21T07:22:45.555Z,10.04
2023-03-21T07:23:45.543Z,10.01
2023-03-21T07:24:48.919Z,10.04
2023-03-21T07:25:45.581Z,10.07
2023-03-21T07:26:45.521Z,10.09
2023-03-21T07:27:45.508Z,10.07
2023-03-21T07:28:45.515Z,10.05
2023-03-21T07:29:45.481Z,10.02
2023-03-21T07:30:45.477Z,10.02
2023-03-21T07:31:45.517Z,10.07
2023-03-21T07:32:45.471Z,10.12
2023-03-21T07:33:45.470Z,10.14
2023-03-21T07:34:45.440Z,10.08
2023-03-21T07:35:45.448Z,10.14
2023-03-21T07:36:45.418Z,10.15
2023-03-21T07:37:45.427Z,10.18
2023-03-21T07:38:45.428Z,10.23
2023-03-21T07:39:45.376Z,10.11
2023-03-21T07:40:45.397Z,10.12
2023-03-21T07:41:45.356Z,10.15
2023-03-21T07:42:45.394Z,10.08
2023-03-21T07:43:45.388Z,10.05
2023-03-21T07:44:45.330Z,10.07
2023-03-21T07:45:45.362Z,10.04
2023-03-21T07:46:45.352Z,10.01
2023-03-21T07:47:45.409Z,9.93
2023-03-21T07:48:45.292Z,9.96
2023-03-21T07:49:45.267Z,9.94
2023-03-21T07:50:45.267Z,9.91
2023-03-21T07:51:45.242Z,9.86
2023-03-21T07:52:45.263Z,9.79
2023-03-21T07:53:45.324Z,9.78
2023-03-21T07:54:45.264Z,9.72
2023-03-21T07:55:45.236Z,9.74
2023-03-21T07:56:45.190Z,9.68
2023-03-21T07:57:45.188Z,9.60
2023-03-21T07:58:45.184Z,9.53
2023-03-21T07:59:45.173Z,9.47
2023-03-21T08:00:45.176Z,9.47
2023-03-21T08:01:45.151Z,9.46
2023-03-21T08:02:45.126Z,9.47
2023-03-21T08:03:45.198Z,9.42
2023-03-21T08:04:45.162Z,9.47
2023-03-21T08:05:45.125Z,9.50
2023-03-21T08:06:45.106Z,9.48
2023-03-21T08:07:45.114Z,9.50
2023-03-21T08:08:45.069Z,9.51
2023-03-21T08:09:45.057Z,9.42
2023-03-21T08:10:45.079Z,9.43
2023-03-21T08:11:45.040Z,9.53
2023-03-21T08:12:45.038Z,9.57
2023-03-21T08:13:45.025Z,9.60
2023-03-21T08:14:45.006Z,9.57
2023-03-21T08:15:45.071Z,9.51
2023-03-21T08:16:45.043Z,9.48
2023-03-21T08:17:44.985Z,9.50
2023-03-21T08:18:44.966Z,9.53
2023-03-21T08:19:44.962Z,9.54
2023-03-21T08:20:44.968Z,9.58
2023-03-21T08:21:44.953Z,9.61
2023-03-21T08:22:44.954Z,9.68
2023-03-21T08:23:44.926Z,9.72
2023-03-21T08:24:44.905Z,9.72
2023-03-21T08:25:44.917Z,9.76
2023-03-21T08:26:44.885Z,9.84
2023-03-21T08:27:44.876Z,9.91
2023-03-21T08:28:44.858Z,9.91
2023-03-21T08:29:44.877Z,9.93
2023-03-21T08:30:44.940Z,10.04
2023-03-21T08:31:44.840Z,10.09
2023-03-21T08:32:44.826Z,10.08
2023-03-21T08:33:44.808Z,10.08
2023-03-21T08:34:44.838Z,10.04
2023-03-21T08:35:45.239Z,9.99
2023-03-21T08:36:44.822Z,9.91
2023-03-21T08:37:44.764Z,9.97
2023-03-21T08:38:44.776Z,9.99
2023-03-21T08:39:44.818Z,10.04
2023-03-21T08:40:44.749Z,10.02
2023-03-21T08:41:44.767Z,9.94
2023-03-21T08:42:44.757Z,9.90
2023-03-21T08:43:44.725Z,9.89
2023-03-21T08:44:44.702Z,9.81
2023-03-21T08:45:44.698Z,9.71
2023-03-21T08:46:44.846Z,9.78
2023-03-21T08:47:44.715Z,9.83
2023-03-21T08:48:44.682Z,9.86
2023-03-21T08:49:44.677Z,9.81
2023-03-21T08:50:44.636Z,9.87
2023-03-21T08:51:44.643Z,9.94
2023-03-21T08:52:44.608Z,9.94
2023-03-21T08:53:44.607Z,9.96
2023-03-21T08:54:44.613Z,9.96
2023-03-21T08:55:44.576Z,10.02
2023-03-21T08:56:44.633Z,10.04
2023-03-21T08:57:44.605Z,10.07
2023-03-21T08:58:44.549Z,10.12
2023-03-21T08:59:44.550Z,10.12
2023-03-21T09:00:44.577Z,10.08
2023-03-21T09:01:44.652Z,10.09
2023-03-21T09:02:44.528Z,10.12
2023-03-21T09:03:44.501Z,10.20
2023-03-21T09:04:44.536Z,10.05
2023-03-21T09:05:44.526Z,10.12
2023-03-21T09:06:44.517Z,9.97
2023-03-21T09:07:44.460Z,9.99
2023-03-21T09:08:44.454Z,10.09
2023-03-21T09:09:45.907Z,10.12
2023-03-21T09:10:44.433Z,10.25
2023-03-21T09:11:44.494Z,10.22
2023-03-21T09:12:44.418Z,10.18
2023-03-21T09:13:44.416Z,10.22
2023-03-21T09:14:44.381Z,10.07
2023-03-21T09:15:44.400Z,10.17
2023-03-21T09:16:44.380Z,10.18
2023-03-21T09:17:44.345Z,10.12
2023-03-21T09:18:44.352Z,10.18
2023-03-21T09:19:44.341Z,10.18
2023-03-21T09:20:44.342Z,10.25
2023-03-21T09:21:44.335Z,10.26
2023-03-21T09:22:44.330Z,10.29
2023-03-21T09:23:44.312Z,10.25
2023-03-21T09:24:44.309Z,10.26
2023-03-21T09:25:44.265Z,10.15
2023-03-21T09:26:44.292Z,10.12
2023-03-21T09:27:45.253Z,10.18
2023-03-21T09:28:44.294Z,10.20
2023-03-21T09:29:44.220Z,10.22
2023-03-21T09:30:44.218Z,10.30
2023-03-21T09:31:44.304Z,10.33
2023-03-21T09:32:44.290Z,10.41
2023-03-21T09:33:44.182Z,10.47
2023-03-21T09:34:44.180Z,10.33
2023-03-21T09:35:44.199Z,10.26
2023-03-21T09:36:44.342Z,10.20
2023-03-21T09:37:44.163Z,10.25
2023-03-21T09:38:44.139Z,10.41
2023-03-21T09:39:44.171Z,10.32
2023-03-21T09:40:44.437Z,10.23
2023-03-21T09:41:44.118Z,10.29
2023-03-21T09:42:44.106Z,10.36
2023-03-21T09:43:44.075Z,10.52
2023-03-21T09:44:44.081Z,10.48
2023-03-21T09:45:44.065Z,10.59
2023-03-21T09:46:44.089Z,10.55
2023-03-21T09:47:44.085Z,10.66
2023-03-21T09:48:54.356Z,10.84
2023-03-21T09:49:44.045Z,10.85
2023-03-21T09:50:44.001Z,10.88
2023-03-21T09:51:43.996Z,11.02
2023-03-21T09:52:44.033Z,10.91
2023-03-21T09:53:43.975Z,10.97
2023-03-21T09:54:43.963Z,11.03
2023-03-21T09:55:43.953Z,11.04
2023-03-21T09:56:43.936Z,10.79
2023-03-21T09:57:43.990Z,10.78
2023-03-21T09:58:43.914Z,10.82
2023-03-21T09:59:43.907Z,10.94
2023-03-21T10:00:43.922Z,10.89
2023-03-21T10:01:43.886Z,10.82
2023-03-21T10:02:43.887Z,10.94
2023-03-21T10:03:43.885Z,10.76
2023-03-21T10:04:44.031Z,10.60
2023-03-21T10:05:43.839Z,10.60
2023-03-21T10:06:43.845Z,10.70
2023-03-21T10:07:43.870Z,10.63
2023-03-21T10:08:43.819Z,10.59
2023-03-21T10:09:43.799Z,10.63
2023-03-21T10:10:43.779Z,10.56
2023-03-21T10:11:43.774Z,10.66
2023-03-21T10:12:43.828Z,10.78
2023-03-21T10:13:43.756Z,10.81
2023-03-21T10:14:43.750Z,10.92
2023-03-21T10:15:43.731Z,11.02
2023-03-21T10:16:43.791Z,10.89
2023-03-21T10:17:43.799Z,10.91
2023-03-21T10:18:43.715Z,10.74
2023-03-21T10:19:43.707Z,10.73
2023-03-21T10:20:43.717Z,10.73
2023-03-21T10:21:59.779Z,10.78
2023-03-21T10:22:43.686Z,10.88
2023-03-21T10:23:43.646Z,11.02
2023-03-21T10:24:43.675Z,11.19
2023-03-21T10:25:43.622Z,11.22
2023-03-21T10:26:43.600Z,11.24
2023-03-21T10:27:43.630Z,11.18
2023-03-21T10:28:52.736Z,11.15
2023-03-21T10:29:43.665Z,11.14
2023-03-21T10:30:43.567Z,11.15
2023-03-21T10:31:43.583Z,11.11
2023-03-21T10:32:43.562Z,11.19
2023-03-21T10:33:43.536Z,11.11
2023-03-21T10:34:43.560Z,11.10
2023-03-21T10:35:43.587Z,11.00
2023-03-21T10:36:43.499Z,11.07
2023-03-21T10:37:43.510Z,11.00
2023-03-21T10:38:43.476Z,10.92
2023-03-21T10:39:43.524Z,11.04
2023-03-21T10:40:43.450Z,11.07
2023-03-21T10:41:43.452Z,11.10
2023-03-21T10:42:43.488Z,11.04
2023-03-21T10:43:43.437Z,11.00
2023-03-21T10:44:43.414Z,11.04
2023-03-21T10:45:43.568Z,11.17
2023-03-21T10:46:43.622Z,11.04
2023-03-21T10:47:43.788Z,10.88
2023-03-21T10:48:43.525Z,10.97
2023-03-21T10:50:06.988Z,11.04
2023-03-21T10:50:43.400Z,10.96
2023-03-21T10:51:44.077Z,10.97
2023-03-21T10:52:43.358Z,10.92
2023-03-21T10:53:43.320Z,10.86
2023-03-21T10:54:43.301Z,10.85
2023-03-21T10:55:43.301Z,10.89
2023-03-21T10:56:43.276Z,10.82
2023-03-21T10:57:43.315Z,10.86
2023-03-21T10:58:43.256Z,10.85
2023-03-21T10:59:43.266Z,10.86
2023-03-21T11:00:43.236Z,10.86
2023-03-21T11:01:43.277Z,10.91
2023-03-21T11:02:43.373Z,11.00
2023-03-21T11:03:43.213Z,11.06
2023-03-21T11:04:43.198Z,11.11
2023-03-21T11:05:43.225Z,11.03
2023-03-21T11:06:43.192Z,10.91
2023-03-21T11:07:43.183Z,10.76
2023-03-21T11:08:43.153Z,10.76
2023-03-21T11:09:43.219Z,10.84
2023-03-21T11:10:43.156Z,10.79
2023-03-21T11:11:43.124Z,10.86
2023-03-21T11:12:43.144Z,10.94
2023-03-21T11:13:43.125Z,11.02
2023-03-21T11:14:43.102Z,10.96
2023-03-21T11:15:43.077Z,10.97
2023-03-21T11:16:43.103Z,11.06
2023-03-21T11:17:43.113Z,11.09
2023-03-21T11:18:43.077Z,11.07
2023-03-21T11:19:43.042Z,11.15
2023-03-21T11:20:43.015Z,11.15
2023-03-21T11:21:43.009Z,11.10
2023-03-21T11:22:43.026Z,11.10
2023-03-21T11:23:43.001Z,11.17
2023-03-21T11:24:43.009Z,11.21
2023-03-21T11:25:43.033Z,11.14
2023-03-21T11:26:42.959Z,11.10
2023-03-21T11:27:42.967Z,11.14
2023-03-21T11:28:42.949Z,11.25
2023-03-21T11:29:42.934Z,11.25
2023-03-21T11:30:42.966Z,11.36
2023-03-21T11:31:42.914Z,11.39
2023-03-21T11:32:42.952Z,11.42
2023-03-21T11:33:43.110Z,11.51
2023-03-21T11:34:42.992Z,11.58
2023-03-21T11:35:42.932Z,11.54
2023-03-21T11:36:43.166Z,11.61
2023-03-21T11:37:42.862Z,11.64
2023-03-21T11:38:42.902Z,11.47
2023-03-21T11:39:43.114Z,11.44
2023-03-21T11:40:42.809Z,11.61
2023-03-21T11:41:42.813Z,11.61
2023-03-21T11:42:42.836Z,11.65
2023-03-21T11:43:42.777Z,11.47
2023-03-21T11:44:42.776Z,11.42
2023-03-21T11:45:42.769Z,11.57
2023-03-21T11:46:42.761Z,11.58
2023-03-21T11:47:42.854Z,11.60
2023-03-21T11:48:42.842Z,11.60
2023-03-21T11:49:42.746Z,11.46
2023-03-21T11:50:42.709Z,11.49
2023-03-21T11:51:42.694Z,11.51
2023-03-21T11:52:42.700Z,11.47
2023-03-21T11:53:42.680Z,11.35
2023-03-21T11:54:42.893Z,11.21
2023-03-21T11:55:43.401Z,11.25
2023-03-21T11:56:42.635Z,11.07
2023-03-21T11:57:42.654Z,11.04
2023-03-21T11:58:44.079Z,11.09
2023-03-21T11:59:42.613Z,11.15
2023-03-21T12:00:42.765Z,11.17
2023-03-21T12:01:42.597Z,11.22
2023-03-21T12:02:42.608Z,11.21
2023-03-21T12:03:48.390Z,11.11
2023-03-21T12:04:42.959Z,11.10
2023-03-21T12:05:43.464Z,11.21
2023-03-21T12:06:42.784Z,11.24
2023-03-21T12:07:42.526Z,11.15
2023-03-21T12:08:42.506Z,11.22
2023-03-21T12:09:42.501Z,10.97
2023-03-21T12:10:42.558Z,10.94
2023-03-21T12:11:42.565Z,10.97
2023-03-21T12:12:43.353Z,11.02
2023-03-21T12:13:42.516Z,11.04
2023-03-21T12:14:42.486Z,11.17
2023-03-21T12:15:42.538Z,11.18
2023-03-21T12:16:42.548Z,11.21
2023-03-21T12:17:42.421Z,11.22
2023-03-21T12:18:42.462Z,11.29
2023-03-21T12:19:42.404Z,11.27
2023-03-21T12:20:42.394Z,11.33
2023-03-21T12:21:42.389Z,11.52
2023-03-21T12:22:42.358Z,11.70
2023-03-21T12:23:42.389Z,11.58
2023-03-21T12:24:42.388Z,11.75
2023-03-21T12:25:42.419Z,11.82
2023-03-21T12:26:42.392Z,11.99
2023-03-21T12:27:42.371Z,12.07
2023-03-21T12:28:42.422Z,12.13
2023-03-21T12:29:42.347Z,12.14
2023-03-21T12:30:42.288Z,12.29
2023-03-21T12:31:42.436Z,12.53
2023-03-21T12:32:42.282Z,12.42
2023-03-21T12:33:42.277Z,12.28
2023-03-21T12:34:42.267Z,12.05
2023-03-21T12:35:43.802Z,12.12
2023-03-21T12:36:42.773Z,12.29
2023-03-21T12:37:42.860Z,12.28
2023-03-21T12:38:42.289Z,12.01
2023-03-21T12:39:42.212Z,11.61
2023-03-21T12:40:42.239Z,11.80
2023-03-21T12:41:42.183Z,12.05
2023-03-21T12:42:42.180Z,11.91
2023-03-21T12:43:42.172Z,11.91
2023-03-21T12:44:42.129Z,11.88
2023-03-21T12:45:47.261Z,11.91
2023-03-21T12:46:42.199Z,11.96
2023-03-21T12:47:42.175Z,11.79
2023-03-21T12:48:42.103Z,11.62
2023-03-21T12:49:42.102Z,11.70
2023-03-21T12:50:42.098Z,11.61
2023-03-21T12:51:42.071Z,11.58
2023-03-21T12:52:42.062Z,11.62
2023-03-21T12:53:42.065Z,11.62
2023-03-21T12:54:42.058Z,11.67
2023-03-21T12:55:42.016Z,11.70
2023-03-21T12:56:42.057Z,11.75
2023-03-21T12:57:47.830Z,11.86
2023-03-21T12:58:43.041Z,11.96
2023-03-21T12:59:41.995Z,11.98
2023-03-21T13:00:42.618Z,11.99
2023-03-21T13:01:42.856Z,11.94
2023-03-21T13:02:41.959Z,11.99
2023-03-21T13:03:42.263Z,12.05
2023-03-21T13:04:42.010Z,12.16
2023-03-21T13:05:41.961Z,12.12
2023-03-21T13:06:41.917Z,12.04
2023-03-21T13:07:42.854Z,12.20
2023-03-21T13:08:41.869Z,12.29
2023-03-21T13:09:41.948Z,12.24
2023-03-21T13:10:41.954Z,12.39
2023-03-21T13:11:41.874Z,12.45
2023-03-21T13:12:41.832Z,12.47
2023-03-21T13:13:41.864Z,12.37
2023-03-21T13:14:42.348Z,12.53
2023-03-21T13:15:41.911Z,12.54
2023-03-21T13:16:41.872Z,12.57
2023-03-21T13:17:41.887Z,12.53
2023-03-21T13:18:41.814Z,12.52
2023-03-21T13:19:41.818Z,12.38
2023-03-21T13:20:42.365Z,12.31
2023-03-21T13:21:41.808Z,12.24
2023-03-21T13:22:41.773Z,12.20
2023-03-21T13:23:41.756Z,12.16
2023-03-21T13:24:41.714Z,12.14
2023-03-21T13:25:42.352Z,12.27
2023-03-21T13:26:41.760Z,12.16
2023-03-21T13:27:41.675Z,12.16
2023-03-21T13:28:41.694Z,12.27
2023-03-21T13:29:41.691Z,12.31
2023-03-21T13:30:42.154Z,12.35
2023-03-21T13:31:51.300Z,12.29
2023-03-21T13:32:41.718Z,12.52
2023-03-21T13:33:41.610Z,12.71
2023-03-21T13:34:41.624Z,12.77
2023-03-21T13:35:42.159Z,12.89
2023-03-21T13:36:41.644Z,13.00
2023-03-21T13:37:41.634Z,12.89
2023-03-21T13:38:41.575Z,12.83
2023-03-21T13:39:41.577Z,12.83
2023-03-21T13:40:41.658Z,12.68
2023-03-21T13:41:41.563Z,12.56
2023-03-21T13:42:41.536Z,12.57
2023-03-21T13:43:41.559Z,12.56
2023-03-21T13:44:41.536Z,12.60
2023-03-21T13:45:41.732Z,12.67
2023-03-21T13:46:52.932Z,12.68
2023-03-21T13:47:41.532Z,12.47
2023-03-21T13:48:44.085Z,12.47
2023-03-21T13:49:41.493Z,12.62
2023-03-21T13:50:41.449Z,12.67
2023-03-21T13:51:41.480Z,12.71
2023-03-21T13:52:41.442Z,12.56
2023-03-21T13:53:41.419Z,12.46
2023-03-21T13:54:41.392Z,12.47
2023-03-21T13:55:41.452Z,12.52
2023-03-21T13:56:41.382Z,12.37
2023-03-21T13:57:41.381Z,12.42
2023-03-21T13:58:41.370Z,12.41
2023-03-21T13:59:41.383Z,12.34
2023-03-21T14:00:41.397Z,12.32
2023-03-21T14:01:41.498Z,12.27
2023-03-21T14:02:41.312Z,12.32
2023-03-21T14:03:41.297Z,12.32
2023-03-21T14:04:53.983Z,12.28
2023-03-21T14:05:41.854Z,12.20
2023-03-21T14:06:41.452Z,12.21
2023-03-21T14:07:41.279Z,12.23
2023-03-21T14:08:41.278Z,12.28
2023-03-21T14:09:41.338Z,12.38
2023-03-21T14:10:41.230Z,12.41
2023-03-21T14:11:46.472Z,12.47
2023-03-21T14:12:41.261Z,12.35
2023-03-21T14:13:50.411Z,12.42
2023-03-21T14:14:41.224Z,12.38
2023-03-21T14:15:49.680Z,12.38
2023-03-21T14:16:41.183Z,12.35
2023-03-21T14:17:41.165Z,12.32
2023-03-21T14:18:53.571Z,12.23
2023-03-21T14:19:41.156Z,12.23
2023-03-21T14:20:41.697Z,12.29
2023-03-21T14:21:41.115Z,12.29
2023-03-21T14:22:41.119Z,12.29
2023-03-21T14:23:41.086Z,12.28
2023-03-21T14:24:41.096Z,12.17
2023-03-21T14:25:47.456Z,12.23
2023-03-21T14:26:41.094Z,12.16
2023-03-21T14:27:41.085Z,12.16
2023-03-21T14:28:41.042Z,12.12
2023-03-21T14:29:41.040Z,12.16
2023-03-21T14:30:41.522Z,12.12
2023-03-21T14:31:41.009Z,12.10
2023-03-21T14:32:41.013Z,12.10
2023-03-21T14:33:41.004Z,12.09
2023-03-21T14:34:43.096Z,12.05
2023-03-21T14:35:41.645Z,12.01
2023-03-21T14:36:45.727Z,11.99
2023-03-21T14:37:41.065Z,12.12
2023-03-21T14:38:40.955Z,12.10
2023-03-21T14:39:40.918Z,12.07
2023-03-21T14:40:41.274Z,12.04
2023-03-21T14:41:40.904Z,12.12
2023-03-21T14:42:40.913Z,12.09
2023-03-21T14:43:40.883Z,11.99
2023-03-21T14:44:55.013Z,12.10
2023-03-21T14:45:41.314Z,12.19
2023-03-21T14:46:40.972Z,12.19
2023-03-21T14:47:40.971Z,12.17
2023-03-21T14:48:40.855Z,12.19
2023-03-21T14:49:40.818Z,12.20
2023-03-21T14:50:40.834Z,12.13
2023-03-21T14:51:40.798Z,12.24
2023-03-21T14:52:40.822Z,12.19
2023-03-21T14:53:40.853Z,12.23
2023-03-21T14:54:40.768Z,12.28
2023-03-21T14:55:40.753Z,12.31
2023-03-21T14:56:40.759Z,12.29
2023-03-21T14:57:40.770Z,12.41
2023-03-21T14:58:40.730Z,12.29
2023-03-21T14:59:40.734Z,12.16
2023-03-21T15:00:40.721Z,12.14
2023-03-21T15:01:40.760Z,12.14
2023-03-21T15:02:40.760Z,12.05
2023-03-21T15:03:40.702Z,12.02
2023-03-21T15:04:40.719Z,12.10
2023-03-21T15:05:41.039Z,12.14
2023-03-21T15:06:40.664Z,12.12
2023-03-21T15:07:40.715Z,12.13
2023-03-21T15:08:40.678Z,12.17
2023-03-21T15:09:40.631Z,12.17
2023-03-21T15:10:41.257Z,11.98
2023-03-21T15:11:40.807Z,11.96
2023-03-21T15:12:40.912Z,11.98
2023-03-21T15:13:47.598Z,12.10
2023-03-21T15:14:40.817Z,11.98
2023-03-21T15:15:43.501Z,12.01
2023-03-21T15:16:42.256Z,11.94
2023-03-21T15:17:43.204Z,11.91
2023-03-21T15:18:53.440Z,11.98
2023-03-21T15:20:05.001Z,11.96
2023-03-21T15:20:58.206Z,11.91
2023-03-21T15:21:41.446Z,11.86
2023-03-21T15:22:50.146Z,11.86
2023-03-21T15:23:42.441Z,11.83
2023-03-21T15:24:40.577Z,11.82
2023-03-21T15:25:41.221Z,11.85
2023-03-21T15:28:38.641Z,11.94
2023-03-21T15:29:42.223Z,12.01
2023-03-21T15:29:55.859Z,12.01
2023-03-21T15:30:51.095Z,11.90
2023-03-21T15:33:03.937Z,12.01
2023-03-21T15:34:04.838Z,12.05
2023-03-21T15:35:04.601Z,12.02
2023-03-21T15:36:04.639Z,11.98
2023-03-21T15:37:04.767Z,12.04
2023-03-21T15:38:05.809Z,12.10
2023-03-21T15:39:04.606Z,12.14
2023-03-21T15:40:04.610Z,12.16
2023-03-21T15:41:04.553Z,12.09
2023-03-21T15:42:04.598Z,12.12
2023-03-21T15:43:04.669Z,12.17
2023-03-21T15:44:04.499Z,12.17
2023-03-21T15:45:04.517Z,12.23
2023-03-21T15:46:04.487Z,12.21
2023-03-21T15:47:04.614Z,12.19
2023-03-21T15:48:04.490Z,12.24
2023-03-21T15:49:04.472Z,12.24
2023-03-21T15:50:04.514Z,12.23
2023-03-21T15:51:04.418Z,12.19
2023-03-21T15:52:04.434Z,12.12
2023-03-21T15:53:04.404Z,12.17
2023-03-21T15:54:04.415Z,12.12
2023-03-21T15:55:04.380Z,12.05
2023-03-21T15:56:04.386Z,11.99
2023-03-21T15:57:04.352Z,12.02
2023-03-21T15:58:04.336Z,12.04
2023-03-21T15:59:04.335Z,12.12
2023-03-21T16:00:04.395Z,12.10
2023-03-21T16:01:04.396Z,12.17
2023-03-21T16:02:04.335Z,12.20
2023-03-21T16:03:04.356Z,12.17
2023-03-21T16:04:04.269Z,12.20
2023-03-21T16:05:04.273Z,12.04
2023-03-21T16:06:04.270Z,11.96
2023-03-21T16:07:04.267Z,12.09
2023-03-21T16:08:04.234Z,12.14
2023-03-21T16:09:04.244Z,12.05
2023-03-21T16:10:04.368Z,12.05
2023-03-21T16:11:04.212Z,12.07
2023-03-21T16:12:04.181Z,12.09
2023-03-21T16:13:04.256Z,12.10
2023-03-21T16:14:04.168Z,12.23
2023-03-21T16:15:04.178Z,12.65
2023-03-21T16:16:04.201Z,12.50
2023-03-21T16:17:04.156Z,12.54
2023-03-21T16:18:04.152Z,12.52
2023-03-21T16:19:04.108Z,12.52
2023-03-21T16:20:04.096Z,12.54
2023-03-21T16:21:04.096Z,12.75
2023-03-21T16:22:04.112Z,12.85
2023-03-21T16:23:04.059Z,12.87
2023-03-21T16:24:04.048Z,12.86
2023-03-21T16:25:04.054Z,12.85
2023-03-21T16:26:04.034Z,12.60
2023-03-21T16:27:04.760Z,12.64
2023-03-21T16:28:04.065Z,12.54
2023-03-21T16:29:04.010Z,12.53
2023-03-21T16:30:04.004Z,12.53
2023-03-21T16:31:03.993Z,12.38
2023-03-21T16:32:04.104Z,12.34
2023-03-21T16:33:04.049Z,12.38
2023-03-21T16:34:03.973Z,12.32
2023-03-21T16:35:03.950Z,12.28
2023-03-21T16:36:03.955Z,12.31
2023-03-21T16:37:03.956Z,12.31
2023-03-21T16:38:03.922Z,12.31
2023-03-21T16:39:03.914Z,12.31
2023-03-21T16:40:03.946Z,12.29
2023-03-21T16:41:03.909Z,12.32
2023-03-21T16:42:03.891Z,12.27
2023-03-21T16:43:03.877Z,12.20
2023-03-21T16:44:03.843Z,12.21
2023-03-21T16:45:03.833Z,12.07
2023-03-21T16:46:03.902Z,12.02
2023-03-21T16:47:03.827Z,11.99
2023-03-21T16:48:03.898Z,12.02
2023-03-21T16:49:03.792Z,12.12
2023-03-21T16:50:03.787Z,12.07
2023-03-21T16:51:03.776Z,12.01
2023-03-21T16:52:03.833Z,11.99
2023-03-21T16:53:03.767Z,11.90
2023-03-21T16:54:03.750Z,11.91
2023-03-21T16:55:03.743Z,11.94
2023-03-21T16:56:03.745Z,11.88
2023-03-21T16:57:03.732Z,11.88
2023-03-21T16:58:03.702Z,11.85
2023-03-21T16:59:03.700Z,11.85
2023-03-21T17:00:03.682Z,11.80
2023-03-21T17:01:03.707Z,11.78
2023-03-21T17:02:03.676Z,11.82
2023-03-21T17:03:03.704Z,11.82
2023-03-21T17:04:03.618Z,11.82
2023-03-21T17:05:04.541Z,11.82
2023-03-21T17:06:03.610Z,11.82
2023-03-21T17:07:03.609Z,11.83
2023-03-21T17:08:03.615Z,11.85
2023-03-21T17:09:03.593Z,11.82
2023-03-21T17:10:03.573Z,11.85
2023-03-21T17:11:04.369Z,11.85
2023-03-21T17:12:03.567Z,11.83
2023-03-21T17:13:03.541Z,11.82
2023-03-21T17:14:03.517Z,11.79
2023-03-21T17:15:03.527Z,11.79
2023-03-21T17:16:03.499Z,11.76
2023-03-21T17:17:03.653Z,11.78
2023-03-21T17:18:03.498Z,11.73
2023-03-21T17:19:03.480Z,11.76
2023-03-21T17:20:03.482Z,11.72
2023-03-21T17:21:03.514Z,11.69
2023-03-21T17:22:03.507Z,11.64
2023-03-21T17:23:03.517Z,11.61
2023-03-21T17:24:03.492Z,11.58
2023-03-21T17:25:03.493Z,11.57
2023-03-21T17:26:03.394Z,11.55
2023-03-21T17:27:03.439Z,11.46
2023-03-21T17:28:03.388Z,11.43
2023-03-21T17:29:03.393Z,11.33
2023-03-21T17:30:03.428Z,11.25
2023-03-21T17:31:04.356Z,11.19
2023-03-21T17:32:03.332Z,11.17
2023-03-21T17:33:03.424Z,11.11
2023-03-21T17:34:04.435Z,11.07
2023-03-21T17:35:03.288Z,11.06
2023-03-21T17:36:03.296Z,11.03
2023-03-21T17:37:03.290Z,10.97
2023-03-21T17:38:03.316Z,10.91
2023-03-21T17:39:03.346Z,10.86
2023-03-21T17:40:03.251Z,10.78
2023-03-21T17:41:03.221Z,10.70
2023-03-21T17:42:03.215Z,10.64
2023-03-21T17:43:03.213Z,10.60
2023-03-21T17:44:03.204Z,10.52
2023-03-21T17:45:03.231Z,10.52
2023-03-21T17:46:03.332Z,10.51
2023-03-21T17:47:03.159Z,10.47
2023-03-21T17:48:03.221Z,10.44
2023-03-21T17:49:03.152Z,10.51
2023-03-21T17:50:03.114Z,10.45
2023-03-21T17:51:03.116Z,10.42
2023-03-21T17:52:03.087Z,10.40
2023-03-21T17:53:03.106Z,10.40
2023-03-21T17:54:03.160Z,10.34
2023-03-21T17:55:03.085Z,10.38
2023-03-21T17:56:03.096Z,10.41
2023-03-21T17:57:03.057Z,10.41
2023-03-21T17:58:03.020Z,10.42
2023-03-21T17:59:03.043Z,10.48
2023-03-21T18:00:03.042Z,10.52
2023-03-21T18:01:03.037Z,10.55
2023-03-21T18:02:03.006Z,10.51
2023-03-21T18:03:02.996Z,10.52
2023-03-21T18:04:02.972Z,10.52
2023-03-21T18:05:03.056Z,10.53
2023-03-21T18:06:02.981Z,10.52
2023-03-21T18:07:03.583Z,10.59
2023-03-21T18:08:10.900Z,10.63
2023-03-21T18:09:03.972Z,10.64
2023-03-21T18:10:02.904Z,10.68
2023-03-21T18:11:02.950Z,10.73
2023-03-21T18:12:02.929Z,10.76
2023-03-21T18:13:02.877Z,10.76
2023-03-21T18:14:15.325Z,10.82
2023-03-21T18:15:02.848Z,10.82
2023-03-21T18:16:02.943Z,10.78
2023-03-21T18:17:02.821Z,10.78
2023-03-21T18:18:02.854Z,10.78
2023-03-21T18:19:02.796Z,10.74
2023-03-21T18:20:02.853Z,10.70
2023-03-21T18:21:03.423Z,10.67
2023-03-21T18:22:02.778Z,10.71
2023-03-21T18:23:02.872Z,10.78
2023-03-21T18:24:02.762Z,10.78
2023-03-21T18:25:02.727Z,10.76
2023-03-21T18:26:02.898Z,10.74
2023-03-21T18:27:02.702Z,10.79
2023-03-21T18:28:11.426Z,10.78
2023-03-21T18:30:03.865Z,10.79
2023-03-21T18:30:44.326Z,10.84
2023-03-21T18:31:11.438Z,10.85
2023-03-21T18:32:06.930Z,10.85
2023-03-21T18:33:02.675Z,10.88
2023-03-21T18:34:02.641Z,10.92
2023-03-21T18:35:02.642Z,10.91
2023-03-21T18:36:07.401Z,10.89
2023-03-21T18:37:04.132Z,10.91
2023-03-21T18:38:02.603Z,10.94
2023-03-21T18:39:02.598Z,10.91
2023-03-21T18:40:02.582Z,10.92
2023-03-21T18:41:02.590Z,10.91
2023-03-21T18:42:04.740Z,11.00
2023-03-21T18:43:52.574Z,11.00
2023-03-21T18:44:09.544Z,11.00